Terminal Aerodrome Forecast
Issued by NWS

Home | Current Version | Previous Version | Text Only | Print | Product List | Glossary On
Versions: 1 2 3 4 5 6 7 8 9 10 11 12 13 14 15
000
FTUS45 KRIW 282300
TAFRKS
TAF
KRKS 282330Z 0100/0124 07015G22KT P6SM VCSH SCT012 OVC020
     FM010300 07014G22KT P6SM -SN OVC025
     FM010800 07013KT P6SM VCFG SCT012 BKN020
     FM011800 07015G23KT P6SM VCSH SCT020 BKN040=

USA.gov is the U.S. government's official web portal to all federal, state and local government web resources and services.